sensor_id;sensor_type;location;lat;lon;timestamp;P1;durP1;ratioP1;P2;durP2;ratioP2
4766;SDS011;2397;53.576;9.746;2023-08-30T00:01:01;2.03;;;1.83;;
4766;SDS011;2397;53.576;9.746;2023-08-30T00:03:28;2.07;;;1.97;;
4766;SDS011;2397;53.576;9.746;2023-08-30T00:05:54;2.10;;;2.00;;
4766;SDS011;2397;53.576;9.746;2023-08-30T00:08:21;2.53;;;2.27;;
4766;SDS011;2397;53.576;9.746;2023-08-30T00:10:48;2.83;;;2.60;;
4766;SDS011;2397;53.576;9.746;2023-08-30T00:13:15;3.37;;;2.67;;
4766;SDS011;2397;53.576;9.746;2023-08-30T00:15:41;3.17;;;2.60;;
4766;SDS011;2397;53.576;9.746;2023-08-30T00:18:08;2.60;;;2.40;;
4766;SDS011;2397;53.576;9.746;2023-08-30T00:20:36;4.20;;;2.63;;
4766;SDS011;2397;53.576;9.746;2023-08-30T00:23:02;2.77;;;2.23;;
4766;SDS011;2397;53.576;9.746;2023-08-30T00:25:29;2.60;;;2.40;;
4766;SDS011;2397;53.576;9.746;2023-08-30T00:27:56;2.60;;;2.40;;
4766;SDS011;2397;53.576;9.746;2023-08-30T00:30:22;2.80;;;2.60;;
4766;SDS011;2397;53.576;9.746;2023-08-30T00:32:49;2.87;;;2.67;;
4766;SDS011;2397;53.576;9.746;2023-08-30T00:35:16;3.80;;;2.47;;
4766;SDS011;2397;53.576;9.746;2023-08-30T00:37:42;2.83;;;2.63;;
4766;SDS011;2397;53.576;9.746;2023-08-30T00:40:09;2.47;;;2.27;;
4766;SDS011;2397;53.576;9.746;2023-08-30T00:42:36;3.40;;;3.10;;
4766;SDS011;2397;53.576;9.746;2023-08-30T00:45:03;2.87;;;2.67;;
4766;SDS011;2397;53.576;9.746;2023-08-30T00:47:31;2.83;;;2.63;;
4766;SDS011;2397;53.576;9.746;2023-08-30T00:49:58;3.00;;;2.70;;
4766;SDS011;2397;53.576;9.746;2023-08-30T00:52:24;3.00;;;2.80;;
4766;SDS011;2397;53.576;9.746;2023-08-30T00:54:51;3.00;;;2.80;;
4766;SDS011;2397;53.576;9.746;2023-08-30T00:57:18;3.10;;;2.90;;
4766;SDS011;2397;53.576;9.746;2023-08-30T00:59:44;3.20;;;2.90;;
4766;SDS011;2397;53.576;9.746;2023-08-30T01:02:11;2.97;;;2.73;;
4766;SDS011;2397;53.576;9.746;2023-08-30T01:04:38;3.50;;;2.60;;
4766;SDS011;2397;53.576;9.746;2023-08-30T01:07:05;3.00;;;2.80;;
4766;SDS011;2397;53.576;9.746;2023-08-30T01:09:32;2.77;;;2.50;;
4766;SDS011;2397;53.576;9.746;2023-08-30T01:14:34;3.07;;;2.87;;
4766;SDS011;2397;53.576;9.746;2023-08-30T01:17:10;4.37;;;3.53;;
4766;SDS011;2397;53.576;9.746;2023-08-30T01:20:03;3.00;;;2.80;;
4766;SDS011;2397;53.576;9.746;2023-08-30T01:22:39;3.33;;;3.10;;
4766;SDS011;2397;53.576;9.746;2023-08-30T01:28:04;4.40;;;4.00;;
4766;SDS011;2397;53.576;9.746;2023-08-30T01:30:34;3.90;;;3.60;;
4766;SDS011;2397;53.576;9.746;2023-08-30T01:33:04;3.90;;;3.60;;
4766;SDS011;2397;53.576;9.746;2023-08-30T01:35:32;5.90;;;5.40;;
4766;SDS011;2397;53.576;9.746;2023-08-30T01:38:02;5.63;;;5.13;;
4766;SDS011;2397;53.576;9.746;2023-08-30T01:40:39;7.03;;;6.33;;
4766;SDS011;2397;53.576;9.746;2023-08-30T01:43:08;7.03;;;4.63;;
4766;SDS011;2397;53.576;9.746;2023-08-30T01:45:35;5.40;;;5.00;;
4766;SDS011;2397;53.576;9.746;2023-08-30T01:48:06;5.20;;;4.57;;
4766;SDS011;2397;53.576;9.746;2023-08-30T01:50:37;5.10;;;4.70;;
4766;SDS011;2397;53.576;9.746;2023-08-30T01:53:05;4.77;;;4.37;;
4766;SDS011;2397;53.576;9.746;2023-08-30T01:55:35;5.33;;;4.83;;
4766;SDS011;2397;53.576;9.746;2023-08-30T01:58:05;4.90;;;4.50;;
4766;SDS011;2397;53.576;9.746;2023-08-30T02:00:34;5.10;;;4.70;;
4766;SDS011;2397;53.576;9.746;2023-08-30T02:03:07;5.60;;;5.07;;
4766;SDS011;2397;53.576;9.746;2023-08-30T02:05:45;5.60;;;5.10;;
4766;SDS011;2397;53.576;9.746;2023-08-30T02:08:19;5.00;;;4.57;;
4766;SDS011;2397;53.576;9.746;2023-08-30T02:10:55;6.73;;;6.23;;
4766;SDS011;2397;53.576;9.746;2023-08-30T02:13:27;5.63;;;5.20;;
4766;SDS011;2397;53.576;9.746;2023-08-30T02:15:56;5.30;;;4.90;;
4766;SDS011;2397;53.576;9.746;2023-08-30T02:18:27;5.10;;;4.77;;
4766;SDS011;2397;53.576;9.746;2023-08-30T02:20:56;5.10;;;4.60;;
4766;SDS011;2397;53.576;9.746;2023-08-30T02:23:24;5.43;;;5.03;;
4766;SDS011;2397;53.576;9.746;2023-08-30T02:25:53;5.43;;;5.03;;
4766;SDS011;2397;53.576;9.746;2023-08-30T02:28:21;7.07;;;5.50;;
4766;SDS011;2397;53.576;9.746;2023-08-30T02:30:49;5.73;;;5.23;;
4766;SDS011;2397;53.576;9.746;2023-08-30T02:33:16;5.53;;;5.10;;
4766;SDS011;2397;53.576;9.746;2023-08-30T02:35:43;6.77;;;6.17;;
4766;SDS011;2397;53.576;9.746;2023-08-30T02:38:10;5.90;;;5.40;;
4766;SDS011;2397;53.576;9.746;2023-08-30T02:40:36;7.30;;;6.70;;
4766;SDS011;2397;53.576;9.746;2023-08-30T02:43:03;7.00;;;6.43;;
4766;SDS011;2397;53.576;9.746;2023-08-30T02:45:30;7.27;;;6.67;;
4766;SDS011;2397;53.576;9.746;2023-08-30T02:47:56;7.53;;;6.73;;
4766;SDS011;2397;53.576;9.746;2023-08-30T02:50:24;7.93;;;7.20;;
4766;SDS011;2397;53.576;9.746;2023-08-30T02:52:51;8.50;;;7.60;;
4766;SDS011;2397;53.576;9.746;2023-08-30T02:55:18;8.10;;;7.40;;
4766;SDS011;2397;53.576;9.746;2023-08-30T02:57:45;8.37;;;7.67;;
4766;SDS011;2397;53.576;9.746;2023-08-30T03:00:13;7.10;;;6.30;;
4766;SDS011;2397;53.576;9.746;2023-08-30T03:02:43;8.97;;;8.20;;
4766;SDS011;2397;53.576;9.746;2023-08-30T03:05:09;8.67;;;7.53;;
4766;SDS011;2397;53.576;9.746;2023-08-30T03:07:38;8.60;;;7.90;;
4766;SDS011;2397;53.576;9.746;2023-08-30T03:10:05;10.23;;;9.23;;
4766;SDS011;2397;53.576;9.746;2023-08-30T03:12:32;10.00;;;9.00;;
4766;SDS011;2397;53.576;9.746;2023-08-30T03:14:59;12.03;;;9.00;;
4766;SDS011;2397;53.576;9.746;2023-08-30T03:17:26;9.77;;;8.87;;
4766;SDS011;2397;53.576;9.746;2023-08-30T03:19:52;10.33;;;9.37;;
4766;SDS011;2397;53.576;9.746;2023-08-30T03:22:20;10.43;;;9.43;;
4766;SDS011;2397;53.576;9.746;2023-08-30T03:24:47;12.73;;;10.33;;
4766;SDS011;2397;53.576;9.746;2023-08-30T03:27:16;12.13;;;10.73;;
4766;SDS011;2397;53.576;9.746;2023-08-30T03:29:44;13.67;;;10.70;;
4766;SDS011;2397;53.576;9.746;2023-08-30T03:32:14;11.37;;;10.27;;
4766;SDS011;2397;53.576;9.746;2023-08-30T03:34:44;11.07;;;9.97;;
4766;SDS011;2397;53.576;9.746;2023-08-30T03:37:13;12.40;;;10.27;;
4766;SDS011;2397;53.576;9.746;2023-08-30T03:39:40;13.50;;;10.50;;
4766;SDS011;2397;53.576;9.746;2023-08-30T03:42:07;11.17;;;9.97;;
4766;SDS011;2397;53.576;9.746;2023-08-30T03:44:35;11.87;;;10.63;;
4766;SDS011;2397;53.576;9.746;2023-08-30T03:47:05;12.30;;;10.00;;
4766;SDS011;2397;53.576;9.746;2023-08-30T03:49:32;11.03;;;10.00;;
4766;SDS011;2397;53.576;9.746;2023-08-30T03:51:59;10.43;;;9.43;;
4766;SDS011;2397;53.576;9.746;2023-08-30T03:54:25;10.13;;;8.80;;
4766;SDS011;2397;53.576;9.746;2023-08-30T03:56:52;10.17;;;9.00;;
4766;SDS011;2397;53.576;9.746;2023-08-30T03:59:18;11.27;;;9.83;;
4766;SDS011;2397;53.576;9.746;2023-08-30T04:01:45;10.57;;;9.47;;
4766;SDS011;2397;53.576;9.746;2023-08-30T04:04:12;9.00;;;8.10;;
4766;SDS011;2397;53.576;9.746;2023-08-30T04:06:39;12.50;;;9.20;;
4766;SDS011;2397;53.576;9.746;2023-08-30T04:09:07;10.80;;;9.70;;
4766;SDS011;2397;53.576;9.746;2023-08-30T04:11:35;9.93;;;8.90;;
4766;SDS011;2397;53.576;9.746;2023-08-30T04:14:03;9.17;;;8.33;;
4766;SDS011;2397;53.576;9.746;2023-08-30T04:16:30;9.80;;;8.90;;
4766;SDS011;2397;53.576;9.746;2023-08-30T04:18:57;10.13;;;9.13;;
4766;SDS011;2397;53.576;9.746;2023-08-30T04:21:23;10.13;;;9.13;;
4766;SDS011;2397;53.576;9.746;2023-08-30T04:23:50;9.67;;;8.87;;
4766;SDS011;2397;53.576;9.746;2023-08-30T04:26:16;9.47;;;8.57;;
4766;SDS011;2397;53.576;9.746;2023-08-30T04:28:44;10.83;;;8.80;;
4766;SDS011;2397;53.576;9.746;2023-08-30T04:31:11;11.23;;;8.90;;
4766;SDS011;2397;53.576;9.746;2023-08-30T04:33:37;9.13;;;8.33;;
4766;SDS011;2397;53.576;9.746;2023-08-30T04:36:04;9.83;;;8.30;;
4766;SDS011;2397;53.576;9.746;2023-08-30T04:38:31;10.00;;;9.00;;
4766;SDS011;2397;53.576;9.746;2023-08-30T04:40:58;8.43;;;7.63;;
4766;SDS011;2397;53.576;9.746;2023-08-30T04:43:32;8.67;;;7.87;;
4766;SDS011;2397;53.576;9.746;2023-08-30T04:45:59;8.43;;;7.70;;
4766;SDS011;2397;53.576;9.746;2023-08-30T04:48:26;10.30;;;9.20;;
4766;SDS011;2397;53.576;9.746;2023-08-30T04:51:02;8.83;;;8.03;;
4766;SDS011;2397;53.576;9.746;2023-08-30T04:53:30;8.50;;;7.80;;
4766;SDS011;2397;53.576;9.746;2023-08-30T04:55:57;10.33;;;9.23;;
4766;SDS011;2397;53.576;9.746;2023-08-30T04:58:26;11.27;;;9.07;;
4766;SDS011;2397;53.576;9.746;2023-08-30T05:00:54;9.37;;;8.47;;
4766;SDS011;2397;53.576;9.746;2023-08-30T05:03:22;10.10;;;9.10;;
4766;SDS011;2397;53.576;9.746;2023-08-30T05:05:49;9.50;;;8.53;;
4766;SDS011;2397;53.576;9.746;2023-08-30T05:08:16;10.83;;;8.90;;
4766;SDS011;2397;53.576;9.746;2023-08-30T05:10:42;9.83;;;9.03;;
4766;SDS011;2397;53.576;9.746;2023-08-30T05:13:09;10.37;;;8.90;;
4766;SDS011;2397;53.576;9.746;2023-08-30T05:15:36;10.30;;;8.60;;
4766;SDS011;2397;53.576;9.746;2023-08-30T05:18:03;12.07;;;9.50;;
4766;SDS011;2397;53.576;9.746;2023-08-30T05:20:31;10.97;;;9.07;;
4766;SDS011;2397;53.576;9.746;2023-08-30T05:22:57;13.47;;;9.63;;
4766;SDS011;2397;53.576;9.746;2023-08-30T05:25:24;9.17;;;8.27;;
4766;SDS011;2397;53.576;9.746;2023-08-30T05:27:52;10.70;;;9.60;;
4766;SDS011;2397;53.576;9.746;2023-08-30T05:30:18;9.67;;;8.67;;
4766;SDS011;2397;53.576;9.746;2023-08-30T05:32:45;10.07;;;8.97;;
4766;SDS011;2397;53.576;9.746;2023-08-30T05:35:24;9.27;;;8.47;;
4766;SDS011;2397;53.576;9.746;2023-08-30T05:38:13;10.43;;;9.40;;
4766;SDS011;2397;53.576;9.746;2023-08-30T05:40:58;10.70;;;9.60;;
4766;SDS011;2397;53.576;9.746;2023-08-30T05:43:25;10.60;;;9.50;;
4766;SDS011;2397;53.576;9.746;2023-08-30T05:45:52;9.80;;;8.83;;
4766;SDS011;2397;53.576;9.746;2023-08-30T05:48:18;10.03;;;8.80;;
4766;SDS011;2397;53.576;9.746;2023-08-30T05:50:45;10.30;;;8.90;;
4766;SDS011;2397;53.576;9.746;2023-08-30T05:53:12;8.77;;;7.93;;
4766;SDS011;2397;53.576;9.746;2023-08-30T05:55:39;9.70;;;8.80;;
4766;SDS011;2397;53.576;9.746;2023-08-30T05:58:05;12.13;;;9.70;;
4766;SDS011;2397;53.576;9.746;2023-08-30T06:00:32;8.70;;;7.87;;
4766;SDS011;2397;53.576;9.746;2023-08-30T06:02:59;9.53;;;8.53;;
4766;SDS011;2397;53.576;9.746;2023-08-30T06:05:26;9.80;;;8.30;;
4766;SDS011;2397;53.576;9.746;2023-08-30T06:07:52;8.60;;;7.80;;
4766;SDS011;2397;53.576;9.746;2023-08-30T06:10:20;11.27;;;9.07;;
4766;SDS011;2397;53.576;9.746;2023-08-30T06:12:46;11.40;;;8.70;;
4766;SDS011;2397;53.576;9.746;2023-08-30T06:15:13;11.33;;;9.30;;
4766;SDS011;2397;53.576;9.746;2023-08-30T06:17:39;8.33;;;7.53;;
4766;SDS011;2397;53.576;9.746;2023-08-30T06:20:06;9.57;;;8.60;;
4766;SDS011;2397;53.576;9.746;2023-08-30T06:22:33;9.27;;;8.20;;
4766;SDS011;2397;53.576;9.746;2023-08-30T06:25:00;10.30;;;9.40;;
4766;SDS011;2397;53.576;9.746;2023-08-30T06:27:26;10.67;;;8.67;;
4766;SDS011;2397;53.576;9.746;2023-08-30T06:29:53;9.57;;;8.67;;
4766;SDS011;2397;53.576;9.746;2023-08-30T06:32:19;8.90;;;7.80;;
4766;SDS011;2397;53.576;9.746;2023-08-30T06:34:46;9.93;;;9.03;;
4766;SDS011;2397;53.576;9.746;2023-08-30T06:37:12;10.40;;;9.40;;
4766;SDS011;2397;53.576;9.746;2023-08-30T06:39:39;11.43;;;9.40;;
4766;SDS011;2397;53.576;9.746;2023-08-30T06:42:05;10.10;;;9.20;;
4766;SDS011;2397;53.576;9.746;2023-08-30T06:44:32;10.13;;;9.20;;
4766;SDS011;2397;53.576;9.746;2023-08-30T06:46:59;11.03;;;9.93;;
4766;SDS011;2397;53.576;9.746;2023-08-30T06:49:28;10.43;;;9.40;;
4766;SDS011;2397;53.576;9.746;2023-08-30T06:51:55;10.63;;;9.60;;
4766;SDS011;2397;53.576;9.746;2023-08-30T06:54:21;10.20;;;9.20;;
4766;SDS011;2397;53.576;9.746;2023-08-30T06:56:58;11.17;;;10.17;;
4766;SDS011;2397;53.576;9.746;2023-08-30T06:59:26;14.60;;;10.17;;
4766;SDS011;2397;53.576;9.746;2023-08-30T07:01:53;11.47;;;10.27;;
4766;SDS011;2397;53.576;9.746;2023-08-30T07:04:20;11.83;;;9.30;;
4766;SDS011;2397;53.576;9.746;2023-08-30T07:06:46;11.40;;;9.83;;
4766;SDS011;2397;53.576;9.746;2023-08-30T07:09:13;10.87;;;9.77;;
4766;SDS011;2397;53.576;9.746;2023-08-30T07:11:42;13.47;;;9.60;;
4766;SDS011;2397;53.576;9.746;2023-08-30T07:14:13;12.20;;;10.20;;
4766;SDS011;2397;53.576;9.746;2023-08-30T07:16:40;11.60;;;10.40;;
4766;SDS011;2397;53.576;9.746;2023-08-30T07:19:07;11.83;;;10.63;;
4766;SDS011;2397;53.576;9.746;2023-08-30T07:21:34;11.20;;;9.83;;
4766;SDS011;2397;53.576;9.746;2023-08-30T07:24:22;13.17;;;11.87;;
4766;SDS011;2397;53.576;9.746;2023-08-30T07:26:49;13.30;;;10.43;;
4766;SDS011;2397;53.576;9.746;2023-08-30T07:29:15;13.30;;;11.90;;
4766;SDS011;2397;53.576;9.746;2023-08-30T07:31:42;12.93;;;11.20;;
4766;SDS011;2397;53.576;9.746;2023-08-30T07:34:09;12.17;;;11.17;;
4766;SDS011;2397;53.576;9.746;2023-08-30T07:36:36;14.67;;;12.50;;
4766;SDS011;2397;53.576;9.746;2023-08-30T07:39:13;13.00;;;11.47;;
4766;SDS011;2397;53.576;9.746;2023-08-30T07:41:39;13.60;;;11.93;;
4766;SDS011;2397;53.576;9.746;2023-08-30T07:44:06;17.90;;;11.60;;
4766;SDS011;2397;53.576;9.746;2023-08-30T07:46:33;11.73;;;10.53;;
4766;SDS011;2397;53.576;9.746;2023-08-30T07:48:59;13.30;;;11.77;;
4766;SDS011;2397;53.576;9.746;2023-08-30T07:51:26;13.17;;;11.93;;
4766;SDS011;2397;53.576;9.746;2023-08-30T07:53:52;14.57;;;13.07;;
4766;SDS011;2397;53.576;9.746;2023-08-30T07:56:19;15.53;;;13.27;;
4766;SDS011;2397;53.576;9.746;2023-08-30T07:58:45;13.87;;;11.93;;
4766;SDS011;2397;53.576;9.746;2023-08-30T08:01:12;14.30;;;11.87;;
4766;SDS011;2397;53.576;9.746;2023-08-30T08:03:38;11.43;;;10.20;;
4766;SDS011;2397;53.576;9.746;2023-08-30T08:06:17;13.53;;;12.13;;
4766;SDS011;2397;53.576;9.746;2023-08-30T08:08:44;17.80;;;13.00;;
4766;SDS011;2397;53.576;9.746;2023-08-30T08:11:10;14.20;;;12.07;;
4766;SDS011;2397;53.576;9.746;2023-08-30T08:13:37;14.60;;;11.60;;
4766;SDS011;2397;53.576;9.746;2023-08-30T08:16:04;14.20;;;11.80;;
4766;SDS011;2397;53.576;9.746;2023-08-30T08:18:31;12.93;;;11.60;;
4766;SDS011;2397;53.576;9.746;2023-08-30T08:20:57;12.40;;;11.07;;
4766;SDS011;2397;53.576;9.746;2023-08-30T08:23:24;14.00;;;12.30;;
4766;SDS011;2397;53.576;9.746;2023-08-30T08:25:56;12.40;;;11.13;;
4766;SDS011;2397;53.576;9.746;2023-08-30T08:28:24;12.90;;;11.23;;
4766;SDS011;2397;53.576;9.746;2023-08-30T08:30:50;13.00;;;11.70;;
4766;SDS011;2397;53.576;9.746;2023-08-30T08:33:17;11.60;;;10.50;;
4766;SDS011;2397;53.576;9.746;2023-08-30T08:35:44;11.27;;;10.10;;
4766;SDS011;2397;53.576;9.746;2023-08-30T08:38:11;12.30;;;10.83;;
4766;SDS011;2397;53.576;9.746;2023-08-30T08:40:37;11.57;;;10.57;;
4766;SDS011;2397;53.576;9.746;2023-08-30T08:43:09;16.83;;;11.50;;
4766;SDS011;2397;53.576;9.746;2023-08-30T08:45:38;11.87;;;10.23;;
4766;SDS011;2397;53.576;9.746;2023-08-30T08:48:05;14.23;;;10.30;;
4766;SDS011;2397;53.576;9.746;2023-08-30T08:50:33;11.37;;;9.83;;
4766;SDS011;2397;53.576;9.746;2023-08-30T08:53:01;10.93;;;9.80;;
4766;SDS011;2397;53.576;9.746;2023-08-30T08:55:29;10.50;;;9.40;;
4766;SDS011;2397;53.576;9.746;2023-08-30T08:57:57;13.90;;;9.63;;
4766;SDS011;2397;53.576;9.746;2023-08-30T09:00:26;12.33;;;8.73;;
4766;SDS011;2397;53.576;9.746;2023-08-30T09:02:56;10.50;;;9.07;;
4766;SDS011;2397;53.576;9.746;2023-08-30T09:05:23;10.23;;;9.23;;
4766;SDS011;2397;53.576;9.746;2023-08-30T09:07:50;9.57;;;8.50;;
4766;SDS011;2397;53.576;9.746;2023-08-30T09:10:21;8.90;;;8.07;;
4766;SDS011;2397;53.576;9.746;2023-08-30T09:12:50;11.97;;;8.13;;
4766;SDS011;2397;53.576;9.746;2023-08-30T09:15:17;10.37;;;9.20;;
4766;SDS011;2397;53.576;9.746;2023-08-30T09:17:47;11.20;;;8.57;;
4766;SDS011;2397;53.576;9.746;2023-08-30T09:20:13;7.43;;;6.73;;
4766;SDS011;2397;53.576;9.746;2023-08-30T09:22:41;9.47;;;7.97;;
4766;SDS011;2397;53.576;9.746;2023-08-30T09:25:09;7.80;;;7.00;;
4766;SDS011;2397;53.576;9.746;2023-08-30T09:27:37;7.70;;;7.00;;
4766;SDS011;2397;53.576;9.746;2023-08-30T09:30:08;11.10;;;7.23;;
4766;SDS011;2397;53.576;9.746;2023-08-30T09:32:40;11.17;;;7.93;;
4766;SDS011;2397;53.576;9.746;2023-08-30T09:35:09;8.43;;;7.03;;
4766;SDS011;2397;53.576;9.746;2023-08-30T09:37:36;7.40;;;6.47;;
4766;SDS011;2397;53.576;9.746;2023-08-30T09:40:02;8.23;;;6.83;;
4766;SDS011;2397;53.576;9.746;2023-08-30T09:42:29;8.87;;;7.47;;
4766;SDS011;2397;53.576;9.746;2023-08-30T09:44:56;7.83;;;7.17;;
4766;SDS011;2397;53.576;9.746;2023-08-30T09:47:24;9.07;;;7.90;;
4766;SDS011;2397;53.576;9.746;2023-08-30T09:49:54;9.00;;;6.70;;
4766;SDS011;2397;53.576;9.746;2023-08-30T09:52:23;7.90;;;7.10;;
4766;SDS011;2397;53.576;9.746;2023-08-30T09:54:51;7.17;;;6.47;;
4766;SDS011;2397;53.576;9.746;2023-08-30T09:57:18;7.77;;;6.97;;
4766;SDS011;2397;53.576;9.746;2023-08-30T09:59:47;7.13;;;6.43;;
4766;SDS011;2397;53.576;9.746;2023-08-30T10:02:14;7.73;;;6.97;;
4766;SDS011;2397;53.576;9.746;2023-08-30T10:04:42;7.83;;;7.07;;
4766;SDS011;2397;53.576;9.746;2023-08-30T10:07:10;9.27;;;7.23;;
4766;SDS011;2397;53.576;9.746;2023-08-30T10:09:38;10.70;;;7.50;;
4766;SDS011;2397;53.576;9.746;2023-08-30T10:12:20;9.73;;;6.77;;
4766;SDS011;2397;53.576;9.746;2023-08-30T10:14:50;8.60;;;7.50;;
4766;SDS011;2397;53.576;9.746;2023-08-30T10:17:18;10.47;;;7.77;;
4766;SDS011;2397;53.576;9.746;2023-08-30T10:19:47;7.23;;;6.53;;
4766;SDS011;2397;53.576;9.746;2023-08-30T10:22:16;7.93;;;5.93;;
4766;SDS011;2397;53.576;9.746;2023-08-30T10:24:45;8.93;;;6.03;;
4766;SDS011;2397;53.576;9.746;2023-08-30T10:27:36;8.90;;;6.40;;
4766;SDS011;2397;53.576;9.746;2023-08-30T10:30:06;6.17;;;5.63;;
4766;SDS011;2397;53.576;9.746;2023-08-30T10:32:39;6.40;;;5.90;;
4766;SDS011;2397;53.576;9.746;2023-08-30T10:35:06;6.50;;;5.47;;
4766;SDS011;2397;53.576;9.746;2023-08-30T10:37:36;7.30;;;6.50;;
4766;SDS011;2397;53.576;9.746;2023-08-30T10:40:03;7.60;;;7.00;;
4766;SDS011;2397;53.576;9.746;2023-08-30T10:42:30;8.30;;;7.57;;
4766;SDS011;2397;53.576;9.746;2023-08-30T10:44:58;7.93;;;6.00;;
4766;SDS011;2397;53.576;9.746;2023-08-30T10:47:29;5.83;;;5.33;;
4766;SDS011;2397;53.576;9.746;2023-08-30T10:49:58;8.60;;;6.93;;
4766;SDS011;2397;53.576;9.746;2023-08-30T10:52:27;6.40;;;5.80;;
4766;SDS011;2397;53.576;9.746;2023-08-30T10:55:04;7.70;;;6.10;;
4766;SDS011;2397;53.576;9.746;2023-08-30T10:57:36;17.70;;;6.77;;
4766;SDS011;2397;53.576;9.746;2023-08-30T11:00:03;7.23;;;5.53;;
4766;SDS011;2397;53.576;9.746;2023-08-30T11:02:34;9.63;;;6.67;;
4766;SDS011;2397;53.576;9.746;2023-08-30T11:05:02;6.30;;;5.70;;
4766;SDS011;2397;53.576;9.746;2023-08-30T11:07:29;6.60;;;6.00;;
4766;SDS011;2397;53.576;9.746;2023-08-30T11:09:57;10.53;;;6.60;;
4766;SDS011;2397;53.576;9.746;2023-08-30T11:12:24;7.80;;;5.83;;
4766;SDS011;2397;53.576;9.746;2023-08-30T11:14:56;7.23;;;6.47;;
4766;SDS011;2397;53.576;9.746;2023-08-30T11:17:23;6.50;;;5.90;;
4766;SDS011;2397;53.576;9.746;2023-08-30T11:19:50;9.33;;;7.13;;
4766;SDS011;2397;53.576;9.746;2023-08-30T11:22:17;10.27;;;6.67;;
4766;SDS011;2397;53.576;9.746;2023-08-30T11:24:46;10.80;;;6.03;;
4766;SDS011;2397;53.576;9.746;2023-08-30T11:27:16;6.60;;;5.90;;
4766;SDS011;2397;53.576;9.746;2023-08-30T11:29:44;6.77;;;6.07;;
4766;SDS011;2397;53.576;9.746;2023-08-30T11:32:10;7.93;;;7.17;;
4766;SDS011;2397;53.576;9.746;2023-08-30T11:34:37;7.30;;;6.57;;
4766;SDS011;2397;53.576;9.746;2023-08-30T11:37:03;7.83;;;7.10;;
4766;SDS011;2397;53.576;9.746;2023-08-30T11:39:30;8.30;;;6.93;;
4766;SDS011;2397;53.576;9.746;2023-08-30T11:41:57;7.13;;;5.93;;
4766;SDS011;2397;53.576;9.746;2023-08-30T11:44:38;7.60;;;6.90;;
4766;SDS011;2397;53.576;9.746;2023-08-30T11:47:05;8.23;;;6.10;;
4766;SDS011;2397;53.576;9.746;2023-08-30T11:49:31;7.37;;;6.50;;
4766;SDS011;2397;53.576;9.746;2023-08-30T11:52:00;9.00;;;6.60;;
4766;SDS011;2397;53.576;9.746;2023-08-30T11:54:27;8.77;;;7.83;;
4766;SDS011;2397;53.576;9.746;2023-08-30T11:56:54;7.37;;;6.40;;
4766;SDS011;2397;53.576;9.746;2023-08-30T11:59:20;7.40;;;6.80;;
4766;SDS011;2397;53.576;9.746;2023-08-30T12:01:53;9.73;;;8.70;;
4766;SDS011;2397;53.576;9.746;2023-08-30T12:04:20;9.07;;;7.47;;
4766;SDS011;2397;53.576;9.746;2023-08-30T12:06:51;12.27;;;7.70;;
4766;SDS011;2397;53.576;9.746;2023-08-30T12:09:20;7.33;;;6.63;;
4766;SDS011;2397;53.576;9.746;2023-08-30T12:11:51;9.17;;;8.20;;
4766;SDS011;2397;53.576;9.746;2023-08-30T12:14:17;8.80;;;7.53;;
4766;SDS011;2397;53.576;9.746;2023-08-30T12:16:44;9.33;;;8.03;;
4766;SDS011;2397;53.576;9.746;2023-08-30T12:19:13;9.17;;;7.50;;
4766;SDS011;2397;53.576;9.746;2023-08-30T12:21:41;7.17;;;6.57;;
4766;SDS011;2397;53.576;9.746;2023-08-30T12:24:13;9.07;;;7.53;;
4766;SDS011;2397;53.576;9.746;2023-08-30T12:26:40;9.60;;;6.87;;
4766;SDS011;2397;53.576;9.746;2023-08-30T12:29:06;12.63;;;8.67;;
4766;SDS011;2397;53.576;9.746;2023-08-30T12:31:33;9.77;;;7.50;;
4766;SDS011;2397;53.576;9.746;2023-08-30T12:34:00;10.23;;;6.63;;
4766;SDS011;2397;53.576;9.746;2023-08-30T12:36:26;8.20;;;7.30;;
4766;SDS011;2397;53.576;9.746;2023-08-30T12:38:53;9.00;;;8.10;;
4766;SDS011;2397;53.576;9.746;2023-08-30T12:41:19;8.03;;;7.23;;
4766;SDS011;2397;53.576;9.746;2023-08-30T12:43:49;7.73;;;6.83;;
4766;SDS011;2397;53.576;9.746;2023-08-30T12:46:17;7.40;;;6.80;;
4766;SDS011;2397;53.576;9.746;2023-08-30T12:48:43;10.33;;;7.10;;
4766;SDS011;2397;53.576;9.746;2023-08-30T12:51:10;7.63;;;6.90;;
4766;SDS011;2397;53.576;9.746;2023-08-30T12:53:36;6.60;;;5.93;;
4766;SDS011;2397;53.576;9.746;2023-08-30T12:56:03;9.73;;;6.43;;
4766;SDS011;2397;53.576;9.746;2023-08-30T12:58:30;7.57;;;6.87;;
4766;SDS011;2397;53.576;9.746;2023-08-30T13:01:00;7.73;;;6.90;;
4766;SDS011;2397;53.576;9.746;2023-08-30T13:03:27;9.77;;;6.27;;
4766;SDS011;2397;53.576;9.746;2023-08-30T13:05:53;6.97;;;5.80;;
4766;SDS011;2397;53.576;9.746;2023-08-30T13:08:20;6.70;;;5.83;;
4766;SDS011;2397;53.576;9.746;2023-08-30T13:10:46;10.33;;;5.97;;
4766;SDS011;2397;53.576;9.746;2023-08-30T13:13:13;7.70;;;5.50;;
4766;SDS011;2397;53.576;9.746;2023-08-30T13:15:40;6.63;;;4.90;;
4766;SDS011;2397;53.576;9.746;2023-08-30T13:18:07;9.50;;;6.20;;
4766;SDS011;2397;53.576;9.746;2023-08-30T13:20:37;5.27;;;4.47;;
4766;SDS011;2397;53.576;9.746;2023-08-30T13:23:05;5.90;;;5.20;;
4766;SDS011;2397;53.576;9.746;2023-08-30T13:25:32;6.07;;;4.70;;
4766;SDS011;2397;53.576;9.746;2023-08-30T13:27:58;11.23;;;4.63;;
4766;SDS011;2397;53.576;9.746;2023-08-30T13:30:26;5.53;;;5.07;;
4766;SDS011;2397;53.576;9.746;2023-08-30T13:32:52;4.50;;;4.20;;
4766;SDS011;2397;53.576;9.746;2023-08-30T13:35:19;5.07;;;4.57;;
4766;SDS011;2397;53.576;9.746;2023-08-30T13:37:45;5.47;;;4.97;;
4766;SDS011;2397;53.576;9.746;2023-08-30T13:40:13;5.00;;;4.57;;
4766;SDS011;2397;53.576;9.746;2023-08-30T13:42:43;4.70;;;4.30;;
4766;SDS011;2397;53.576;9.746;2023-08-30T13:45:09;4.87;;;4.27;;
4766;SDS011;2397;53.576;9.746;2023-08-30T13:47:36;5.40;;;4.40;;
4766;SDS011;2397;53.576;9.746;2023-08-30T13:50:02;4.90;;;4.50;;
4766;SDS011;2397;53.576;9.746;2023-08-30T13:52:30;4.67;;;4.37;;
4766;SDS011;2397;53.576;9.746;2023-08-30T13:54:57;4.60;;;4.20;;
4766;SDS011;2397;53.576;9.746;2023-08-30T13:57:23;5.27;;;4.07;;
4766;SDS011;2397;53.576;9.746;2023-08-30T13:59:50;6.20;;;4.30;;
4766;SDS011;2397;53.576;9.746;2023-08-30T14:02:17;5.23;;;4.73;;
4766;SDS011;2397;53.576;9.746;2023-08-30T14:04:45;5.37;;;4.87;;
4766;SDS011;2397;53.576;9.746;2023-08-30T14:07:12;7.00;;;6.30;;
4766;SDS011;2397;53.576;9.746;2023-08-30T14:09:38;5.50;;;5.10;;
4766;SDS011;2397;53.576;9.746;2023-08-30T14:12:05;5.10;;;4.60;;
4766;SDS011;2397;53.576;9.746;2023-08-30T14:14:32;4.67;;;4.30;;
4766;SDS011;2397;53.576;9.746;2023-08-30T14:16:59;5.33;;;4.93;;
4766;SDS011;2397;53.576;9.746;2023-08-30T14:19:25;6.13;;;4.90;;
4766;SDS011;2397;53.576;9.746;2023-08-30T14:21:52;5.33;;;4.83;;
4766;SDS011;2397;53.576;9.746;2023-08-30T14:24:21;6.63;;;5.20;;
4766;SDS011;2397;53.576;9.746;2023-08-30T14:26:48;4.50;;;4.20;;
4766;SDS011;2397;53.576;9.746;2023-08-30T14:29:14;4.77;;;4.20;;
4766;SDS011;2397;53.576;9.746;2023-08-30T14:31:41;5.77;;;5.23;;
4766;SDS011;2397;53.576;9.746;2023-08-30T14:34:08;4.77;;;4.43;;
4766;SDS011;2397;53.576;9.746;2023-08-30T14:36:34;5.57;;;5.00;;
4766;SDS011;2397;53.576;9.746;2023-08-30T14:39:01;5.70;;;5.13;;
4766;SDS011;2397;53.576;9.746;2023-08-30T14:41:29;5.03;;;4.00;;
4766;SDS011;2397;53.576;9.746;2023-08-30T14:43:56;5.43;;;4.80;;
4766;SDS011;2397;53.576;9.746;2023-08-30T14:46:22;5.40;;;4.90;;
4766;SDS011;2397;53.576;9.746;2023-08-30T14:48:50;5.57;;;5.07;;
4766;SDS011;2397;53.576;9.746;2023-08-30T14:51:16;6.73;;;4.30;;
4766;SDS011;2397;53.576;9.746;2023-08-30T14:53:43;5.63;;;5.07;;
4766;SDS011;2397;53.576;9.746;2023-08-30T14:56:10;5.63;;;5.20;;
4766;SDS011;2397;53.576;9.746;2023-08-30T14:58:38;6.40;;;5.53;;
4766;SDS011;2397;53.576;9.746;2023-08-30T15:01:04;5.43;;;4.87;;
4766;SDS011;2397;53.576;9.746;2023-08-30T15:03:31;5.90;;;5.40;;
4766;SDS011;2397;53.576;9.746;2023-08-30T15:05:59;6.07;;;5.57;;
4766;SDS011;2397;53.576;9.746;2023-08-30T15:08:26;6.03;;;5.53;;
4766;SDS011;2397;53.576;9.746;2023-08-30T15:10:53;6.67;;;5.10;;
4766;SDS011;2397;53.576;9.746;2023-08-30T15:13:21;6.90;;;6.20;;
4766;SDS011;2397;53.576;9.746;2023-08-30T15:15:48;9.87;;;4.67;;
4766;SDS011;2397;53.576;9.746;2023-08-30T15:18:15;5.70;;;5.20;;